Friday, November 24, 2017, 12:41 AM EST
Back to Local

KELM, Elmira County Airport

Location: Horseheads, NY, United States Lat: 42.167
Local Time: 12:41 AM EST ( 5:41 GMT) Lon: -76.9
Time Zone: US/Eastern Elev: 954 ft

Show me the last for .
Show Decoded

2017-11-23 23:53 METAR KELM 240453Z AUTO 00000KT 10SM BKN070 M01/M04 A2998 RMK AO2 SLP161
                 T10111039 400281039 =
2017-11-23 22:53 METAR KELM 240353Z 00000KT 10SM SCT075 01/M03 A2996 RMK AO2 SLP156 T00111033 =
2017-11-23 21:53 METAR KELM 240253Z 00000KT 10SM BKN060 OVC075 02/M03 A2997 RMK AO2 SLP158
                 T00221028 50001 =
2017-11-23 20:53 METAR KELM 240153Z 00000KT 10SM OVC060 02/M02 A2998 RMK AO2 SLP160 T00171022 =
2017-11-23 19:53 METAR KELM 240053Z 00000KT 10SM OVC070 02/M02 A2998 RMK AO2 SLP163 T00171022 =
2017-11-23 18:53 METAR KELM 232353Z 00000KT 10SM BKN080 OVC100 01/M03 A2997 RMK AO2 SLP158
                 T00111033 10028 20011 56005 =
2017-11-23 17:53 METAR KELM 232253Z 23003KT 10SM OVC095 02/M04 A2996 RMK AO2 SLP157 T00221039 =
2017-11-23 16:53 METAR KELM 232153Z 21004KT 10SM OVC100 03/M04 A2997 RMK AO2 SLP158 T00281039 =
2017-11-23 15:53 METAR KELM 232053Z AUTO 24006KT 10SM SCT031 OVC100 03/M04 A2998 RMK AO2 SLP161
                 T00281039 56019 =
2017-11-23 14:53 METAR KELM 231953Z AUTO 21006KT 10SM OVC032 03/M04 A2999 RMK AO2 SLP164
                 T00281044 =
2017-11-23 14:23 METAR KELM 231923Z 24003KT 10SM OVC030 02/M05 A3000 RMK AO2 T00221050 =
2017-11-23 13:53 METAR KELM 231853Z 25006KT 10SM OVC029 02/M05 A3001 RMK AO2 SLP172 T00221050 =
2017-11-23 13:36 METAR KELM 231836Z 24006KT 10SM OVC029 02/M05 A3002 RMK AO2 T00221050 =
2017-11-23 13:05 METAR KELM 231805Z 19007KT 10SM OVC030 02/M06 A3003 RMK AO2 T00171056 =
2017-11-23 12:53 METAR KELM 231753Z 23005KT 10SM OVC029 01/M06 A3004 RMK AO2 SLP182 T00111056
                 10017 21033 58030 =
2017-11-23 12:17 METAR KELM 231717Z 21005KT 10SM OVC029 01/M06 A3006 RMK AO2 T00061061 =
2017-11-23 11:53 METAR KELM 231653Z 24004KT 10SM OVC031 01/M06 A3007 RMK AO2 SLP194 T00061061 =
2017-11-23 10:53 METAR KELM 231553Z 26005KT 10SM OVC033 00/M07 A3011 RMK AO2 SLP206 T00001067 =
2017-11-23 09:53 METAR KELM 231453Z 26004KT 10SM OVC030 M01/M07 A3013 RMK AO2 SLP213 T10111072
                 53000 =
2017-11-23 09:24 METAR KELM 231424Z 29004KT 10SM OVC029 M01/M07 A3013 RMK AO2 T10111072 =
2017-11-23 08:53 METAR KELM 231353Z 26003KT 10SM OVC030 M02/M07 A3012 RMK AO2 SLP210 T10171067 =
2017-11-23 07:53 METAR KELM 231253Z 00000KT 10SM BKN032 M03/M07 A3012 RMK AO2 SLP213 T10281067 =
2017-11-23 06:53 METAR KELM 231153Z 00000KT 10SM OVC034 M03/M08 A3013 RMK AO2 SLP213 70001
                 T10331083 11017 21039 55005 =
2017-11-23 05:53 METAR KELM 231053Z 26006KT 10SM FEW031 M03/M08 A3012 RMK AO2 SLP211 T10331083 =
2017-11-23 05:13 METAR KELM 231013Z AUTO 28007KT 10SM OVC030 M02/M08 A3013 RMK AO2 T10221083 =
2017-11-23 04:53 METAR KELM 230953Z AUTO 29004KT 10SM OVC029 M02/M08 A3013 RMK AO2 SLP214
                 T10221083 =
2017-11-23 03:53 METAR KELM 230853Z AUTO 28004KT 10SM OVC029 M02/M08 A3014 RMK AO2 SLP216
                 T10171078 58003 =
2017-11-23 02:53 METAR KELM 230753Z AUTO 26006KT 10SM OVC031 M02/M07 A3015 RMK AO2 SLP220
                 T10171072 =
2017-11-23 01:53 METAR KELM 230653Z AUTO 23006KT 10SM OVC031 M02/M07 A3014 RMK AO2 SLP217
                 T10171072 =
2017-11-23 00:53 METAR KELM 230553Z AUTO 24006KT 10SM OVC033 M02/M07 A3015 RMK AO2 SLP219
                 T10221072 10000 21044 56003 =

Support USWX by starting your Amazon purchase here.